createdAt,value
2023-03-14T00:00:07.773Z,12.93
2023-03-14T00:01:07.759Z,12.88
2023-03-14T00:02:07.726Z,12.91
2023-03-14T00:03:07.742Z,12.90
2023-03-14T00:04:07.780Z,12.90
2023-03-14T00:05:07.760Z,12.86
2023-03-14T00:06:07.672Z,12.88
2023-03-14T00:07:07.712Z,12.84
2023-03-14T00:08:07.646Z,12.86
2023-03-14T00:09:07.671Z,12.84
2023-03-14T00:10:07.677Z,12.84
2023-03-14T00:11:07.676Z,12.83
2023-03-14T00:12:07.625Z,12.83
2023-03-14T00:13:07.590Z,12.83
2023-03-14T00:14:07.604Z,12.81
2023-03-14T00:15:07.599Z,12.81
2023-03-14T00:16:07.616Z,12.83
2023-03-14T00:17:07.561Z,12.78
2023-03-14T00:18:07.627Z,12.76
2023-03-14T00:19:07.588Z,12.76
2023-03-14T00:20:07.560Z,12.75
2023-03-14T00:21:07.531Z,12.73
2023-03-14T00:22:07.526Z,12.72
2023-03-14T00:23:07.517Z,12.73
2023-03-14T00:24:07.513Z,12.72
2023-03-14T00:25:07.476Z,12.70
2023-03-14T00:26:07.517Z,12.70
2023-03-14T00:27:07.525Z,12.69
2023-03-14T00:28:07.552Z,12.69
2023-03-14T00:29:07.446Z,12.66
2023-03-14T00:30:07.477Z,12.68
2023-03-14T00:31:07.460Z,12.66
2023-03-14T00:32:07.413Z,12.68
2023-03-14T00:33:07.424Z,12.65
2023-03-14T00:34:07.444Z,12.65
2023-03-14T00:35:07.355Z,12.63
2023-03-14T00:36:07.431Z,12.63
2023-03-14T00:37:07.390Z,12.62
2023-03-14T00:38:07.345Z,12.61
2023-03-14T00:39:07.355Z,12.61
2023-03-14T00:40:07.303Z,12.62
2023-03-14T00:41:07.308Z,12.58
2023-03-14T00:42:07.304Z,12.61
2023-03-14T00:43:07.266Z,12.57
2023-03-14T00:44:07.248Z,12.55
2023-03-14T00:45:07.302Z,12.54
2023-03-14T00:46:07.277Z,12.55
2023-03-14T00:47:07.432Z,12.54
2023-03-14T00:48:07.193Z,12.53
2023-03-14T00:49:07.246Z,12.51
2023-03-14T00:50:07.289Z,12.53
2023-03-14T00:51:07.219Z,12.48
2023-03-14T00:52:07.200Z,12.50
2023-03-14T00:53:07.202Z,12.50
2023-03-14T00:54:07.184Z,12.47
2023-03-14T00:55:07.143Z,12.47
2023-03-14T00:56:07.164Z,12.47
2023-03-14T00:57:07.141Z,12.45
2023-03-14T00:58:07.105Z,12.44
2023-03-14T00:59:07.144Z,12.43
2023-03-14T01:00:07.167Z,12.40
2023-03-14T01:01:07.056Z,12.40
2023-03-14T01:02:07.101Z,12.39
2023-03-14T01:03:07.069Z,12.39
2023-03-14T01:04:07.081Z,12.37
2023-03-14T01:05:07.051Z,12.33
2023-03-14T01:06:07.078Z,12.37
2023-03-14T01:07:06.997Z,12.33
2023-03-14T01:08:07.034Z,12.33
2023-03-14T01:09:07.020Z,12.30
2023-03-14T01:10:06.970Z,12.33
2023-03-14T01:11:06.992Z,12.33
2023-03-14T01:12:06.977Z,12.32
2023-03-14T01:13:06.955Z,12.32
2023-03-14T01:14:06.987Z,12.29
2023-03-14T01:15:06.992Z,12.30
2023-03-14T01:16:06.962Z,12.33
2023-03-14T01:17:06.913Z,12.30
2023-03-14T01:18:06.933Z,12.32
2023-03-14T01:19:06.902Z,12.32
2023-03-14T01:20:06.947Z,12.30
2023-03-14T01:21:06.876Z,12.32
2023-03-14T01:22:06.854Z,12.33
2023-03-14T01:23:06.852Z,12.33
2023-03-14T01:24:06.867Z,12.30
2023-03-14T01:25:06.804Z,12.33
2023-03-14T01:26:06.852Z,12.35
2023-03-14T01:27:06.795Z,12.36
2023-03-14T01:28:06.809Z,12.36
2023-03-14T01:29:06.795Z,12.36
2023-03-14T01:30:06.811Z,12.36
2023-03-14T01:31:06.812Z,12.36
2023-03-14T01:32:06.730Z,12.37
2023-03-14T01:33:06.724Z,12.37
2023-03-14T01:34:06.767Z,12.37
2023-03-14T01:35:06.710Z,12.40
2023-03-14T01:36:06.759Z,12.44
2023-03-14T01:37:06.700Z,12.45
2023-03-14T01:38:06.826Z,12.47
2023-03-14T01:39:06.685Z,12.47
2023-03-14T01:40:06.688Z,12.47
2023-03-14T01:41:06.634Z,12.48
2023-03-14T01:42:06.641Z,12.48
2023-03-14T01:43:06.588Z,12.47
2023-03-14T01:44:06.648Z,12.50
2023-03-14T01:45:06.609Z,12.50
2023-03-14T01:46:06.682Z,12.48
2023-03-14T01:47:06.560Z,12.48
2023-03-14T01:48:06.571Z,12.48
2023-03-14T01:49:06.576Z,12.48
2023-03-14T01:50:06.581Z,12.48
2023-03-14T01:51:06.603Z,12.45
2023-03-14T01:52:06.536Z,12.45
2023-03-14T01:53:06.558Z,12.44
2023-03-14T01:54:06.540Z,12.44
2023-03-14T01:55:06.506Z,12.43
2023-03-14T01:56:06.513Z,12.43
2023-03-14T01:57:06.486Z,12.39
2023-03-14T01:58:06.441Z,12.39
2023-03-14T01:59:06.468Z,12.37
2023-03-14T02:00:06.455Z,12.36
2023-03-14T02:01:06.452Z,12.36
2023-03-14T02:02:06.416Z,12.36
2023-03-14T02:03:06.436Z,12.32
2023-03-14T02:04:06.430Z,12.32
2023-03-14T02:05:06.387Z,12.32
2023-03-14T02:06:06.354Z,12.30
2023-03-14T02:07:06.346Z,12.30
2023-03-14T02:08:06.357Z,12.30
2023-03-14T02:09:06.402Z,12.26
2023-03-14T02:10:06.340Z,12.28
2023-03-14T02:11:06.335Z,12.23
2023-03-14T02:12:06.431Z,12.25
2023-03-14T02:13:06.269Z,12.20
2023-03-14T02:14:06.252Z,12.18
2023-03-14T02:15:06.303Z,12.20
2023-03-14T02:16:06.349Z,12.18
2023-03-14T02:17:06.251Z,12.15
2023-03-14T02:18:06.248Z,12.18
2023-03-14T02:19:06.252Z,12.15
2023-03-14T02:20:06.210Z,12.14
2023-03-14T02:21:06.260Z,12.11
2023-03-14T02:22:06.208Z,12.12
2023-03-14T02:23:06.208Z,12.10
2023-03-14T02:24:06.180Z,12.11
2023-03-14T02:25:06.157Z,12.08
2023-03-14T02:26:06.148Z,12.08
2023-03-14T02:27:06.136Z,12.08
2023-03-14T02:28:06.199Z,12.07
2023-03-14T02:29:06.139Z,12.03
2023-03-14T02:30:06.151Z,12.02
2023-03-14T02:31:06.084Z,12.02
2023-03-14T02:32:06.175Z,12.00
2023-03-14T02:33:06.079Z,12.00
2023-03-14T02:34:06.098Z,12.00
2023-03-14T02:35:06.043Z,11.97
2023-03-14T02:36:06.097Z,11.97
2023-03-14T02:37:05.994Z,11.96
2023-03-14T02:38:06.686Z,11.96
2023-03-14T02:39:05.968Z,11.93
2023-03-14T02:40:05.986Z,11.91
2023-03-14T02:41:06.007Z,11.91
2023-03-14T02:42:05.973Z,11.91
2023-03-14T02:43:05.979Z,11.86
2023-03-14T02:44:05.965Z,11.86
2023-03-14T02:45:05.936Z,11.81
2023-03-14T02:46:05.970Z,11.83
2023-03-14T02:47:05.929Z,11.81
2023-03-14T02:48:05.926Z,11.80
2023-03-14T02:49:05.933Z,11.78
2023-03-14T02:50:05.900Z,11.77
2023-03-14T02:51:05.884Z,11.77
2023-03-14T02:52:05.855Z,11.74
2023-03-14T02:53:06.229Z,11.73
2023-03-14T02:54:05.824Z,11.71
2023-03-14T02:55:05.803Z,11.70
2023-03-14T02:56:05.804Z,11.70
2023-03-14T02:57:05.822Z,11.68
2023-03-14T02:58:05.814Z,11.65
2023-03-14T02:59:05.791Z,11.63
2023-03-14T03:00:05.798Z,11.62
2023-03-14T03:01:05.892Z,11.60
2023-03-14T03:02:05.789Z,11.60
2023-03-14T03:03:05.828Z,11.58
2023-03-14T03:04:05.744Z,11.58
2023-03-14T03:05:05.845Z,11.55
2023-03-14T03:06:05.721Z,11.55
2023-03-14T03:07:05.674Z,11.52
2023-03-14T03:08:05.671Z,11.52
2023-03-14T03:09:05.673Z,11.51
2023-03-14T03:10:05.692Z,11.49
2023-03-14T03:11:05.661Z,11.48
2023-03-14T03:12:05.650Z,11.48
2023-03-14T03:13:05.656Z,11.45
2023-03-14T03:14:06.164Z,11.45
2023-03-14T03:15:05.637Z,11.45
2023-03-14T03:16:05.643Z,11.45
2023-03-14T03:17:05.612Z,11.43
2023-03-14T03:18:05.581Z,11.43
2023-03-14T03:19:05.604Z,11.41
2023-03-14T03:20:05.580Z,11.40
2023-03-14T03:21:05.541Z,11.38
2023-03-14T03:22:05.539Z,11.41
2023-03-14T03:23:05.528Z,11.38
2023-03-14T03:24:05.533Z,11.37
2023-03-14T03:25:05.515Z,11.38
2023-03-14T03:26:05.546Z,11.37
2023-03-14T03:27:05.488Z,11.35
2023-03-14T03:28:05.482Z,11.37
2023-03-14T03:29:05.465Z,11.34
2023-03-14T03:30:05.612Z,11.34
2023-03-14T03:31:05.544Z,11.33
2023-03-14T03:32:05.454Z,11.35
2023-03-14T03:33:05.439Z,11.34
2023-03-14T03:34:05.420Z,11.34
2023-03-14T03:35:05.419Z,11.33
2023-03-14T03:36:05.489Z,11.34
2023-03-14T03:37:05.458Z,11.35
2023-03-14T03:38:05.381Z,11.33
2023-03-14T03:39:05.368Z,11.34
2023-03-14T03:40:05.353Z,11.35
2023-03-14T03:41:05.404Z,11.33
2023-03-14T03:42:05.330Z,11.35
2023-03-14T03:43:05.323Z,11.34
2023-03-14T03:44:05.337Z,11.34
2023-03-14T03:45:05.381Z,11.35
2023-03-14T03:46:05.358Z,11.37
2023-03-14T03:47:05.316Z,11.38
2023-03-14T03:48:05.334Z,11.37
2023-03-14T03:49:05.292Z,11.38
2023-03-14T03:50:05.242Z,11.40
2023-03-14T03:51:05.237Z,11.41
2023-03-14T03:52:05.242Z,11.40
2023-03-14T03:53:05.269Z,11.40
2023-03-14T03:54:05.202Z,11.41
2023-03-14T03:55:05.231Z,11.43
2023-03-14T03:56:05.215Z,11.43
2023-03-14T03:57:05.152Z,11.43
2023-03-14T03:58:05.160Z,11.44
2023-03-14T03:59:05.179Z,11.44
2023-03-14T04:00:05.160Z,11.44
2023-03-14T04:01:05.139Z,11.41
2023-03-14T04:02:05.211Z,11.43
2023-03-14T04:03:05.098Z,11.43
2023-03-14T04:04:05.192Z,11.43
2023-03-14T04:05:05.061Z,11.44
2023-03-14T04:06:05.142Z,11.43
2023-03-14T04:07:05.066Z,11.45
2023-03-14T04:08:05.039Z,11.45
2023-03-14T04:09:05.055Z,11.44
2023-03-14T04:10:05.051Z,11.44
2023-03-14T04:11:05.256Z,11.45
2023-03-14T04:12:05.043Z,11.44
2023-03-14T04:13:05.055Z,11.44
2023-03-14T04:14:04.986Z,11.43
2023-03-14T04:15:05.016Z,11.44
2023-03-14T04:16:04.991Z,11.45
2023-03-14T04:17:04.941Z,11.44
2023-03-14T04:18:04.945Z,11.44
2023-03-14T04:19:04.931Z,11.43
2023-03-14T04:20:04.931Z,11.45
2023-03-14T04:21:04.921Z,11.44
2023-03-14T04:22:04.912Z,11.44
2023-03-14T04:23:04.900Z,11.45
2023-03-14T04:24:04.871Z,11.45
2023-03-14T04:25:04.879Z,11.45
2023-03-14T04:26:04.931Z,11.48
2023-03-14T04:27:04.842Z,11.45
2023-03-14T04:28:04.894Z,11.51
2023-03-14T04:29:04.823Z,11.48
2023-03-14T04:30:04.839Z,11.45
2023-03-14T04:31:04.867Z,11.44
2023-03-14T04:32:04.796Z,11.48
2023-03-14T04:33:04.780Z,11.49
2023-03-14T04:34:04.786Z,11.49
2023-03-14T04:35:04.749Z,11.48
2023-03-14T04:36:04.800Z,11.45
2023-03-14T04:37:04.774Z,11.44
2023-03-14T04:38:04.753Z,11.49
2023-03-14T04:39:04.679Z,11.48
2023-03-14T04:40:04.705Z,11.49
2023-03-14T04:41:04.692Z,11.51
2023-03-14T04:42:04.688Z,11.49
2023-03-14T04:43:04.666Z,11.51
2023-03-14T04:44:04.672Z,11.51
2023-03-14T04:45:04.749Z,11.49
2023-03-14T04:46:04.638Z,11.51
2023-03-14T04:47:04.675Z,11.52
2023-03-14T04:48:04.647Z,11.53
2023-03-14T04:49:04.622Z,11.52
2023-03-14T04:50:04.600Z,11.55
2023-03-14T04:51:04.595Z,11.53
2023-03-14T04:52:04.627Z,11.55
2023-03-14T04:53:04.566Z,11.53
2023-03-14T04:54:04.579Z,11.55
2023-03-14T04:55:04.561Z,11.53
2023-03-14T04:56:04.589Z,11.55
2023-03-14T04:57:04.538Z,11.55
2023-03-14T04:58:04.529Z,11.56
2023-03-14T04:59:04.505Z,11.56
2023-03-14T05:00:04.516Z,11.55
2023-03-14T05:01:04.521Z,11.56
2023-03-14T05:02:04.554Z,11.58
2023-03-14T05:03:04.653Z,11.58
2023-03-14T05:04:04.469Z,11.56
2023-03-14T05:05:04.445Z,11.58
2023-03-14T05:06:04.423Z,11.60
2023-03-14T05:07:04.437Z,11.58
2023-03-14T05:08:04.433Z,11.56
2023-03-14T05:09:04.385Z,11.58
2023-03-14T05:10:04.390Z,11.58
2023-03-14T05:11:04.401Z,11.58
2023-03-14T05:12:04.391Z,11.56
2023-03-14T05:13:04.340Z,11.55
2023-03-14T05:14:04.350Z,11.53
2023-03-14T05:15:04.270Z,11.51
2023-03-14T05:16:04.321Z,11.53
2023-03-14T05:17:04.256Z,11.53
2023-03-14T05:18:04.220Z,11.53
2023-03-14T05:19:04.220Z,11.52
2023-03-14T05:20:04.222Z,11.52
2023-03-14T05:21:04.212Z,11.52
2023-03-14T05:22:04.272Z,11.52
2023-03-14T05:23:04.156Z,11.51
2023-03-14T05:24:04.182Z,11.52
2023-03-14T05:25:04.156Z,11.49
2023-03-14T05:26:04.162Z,11.52
2023-03-14T05:27:04.229Z,11.48
2023-03-14T05:28:04.135Z,11.48
2023-03-14T05:29:04.085Z,11.48
2023-03-14T05:30:04.086Z,11.49
2023-03-14T05:31:04.068Z,11.48
2023-03-14T05:32:04.066Z,11.48
2023-03-14T05:33:04.047Z,11.44
2023-03-14T05:34:04.069Z,11.43
2023-03-14T05:35:04.009Z,11.43
2023-03-14T05:36:04.082Z,11.40
2023-03-14T05:37:04.039Z,11.41
2023-03-14T05:38:04.051Z,11.43
2023-03-14T05:39:04.050Z,11.43
2023-03-14T05:40:04.022Z,11.41
2023-03-14T05:41:04.008Z,11.43
2023-03-14T05:42:04.023Z,11.41
2023-03-14T05:43:03.941Z,11.40
2023-03-14T05:44:03.954Z,11.40
2023-03-14T05:45:03.926Z,11.38
2023-03-14T05:46:04.785Z,11.40
2023-03-14T05:47:03.955Z,11.38
2023-03-14T05:48:03.953Z,11.38
2023-03-14T05:49:03.907Z,11.38
2023-03-14T05:50:03.866Z,11.37
2023-03-14T05:51:03.866Z,11.37
2023-03-14T05:52:03.863Z,11.37
2023-03-14T05:53:03.865Z,11.37
2023-03-14T05:54:03.865Z,11.37
2023-03-14T05:55:03.838Z,11.35
2023-03-14T05:56:03.845Z,11.38
2023-03-14T05:57:03.807Z,11.34
2023-03-14T05:58:03.776Z,11.34
2023-03-14T05:59:03.751Z,11.35
2023-03-14T06:00:03.773Z,11.34
2023-03-14T06:01:03.824Z,11.34
2023-03-14T06:02:03.831Z,11.35
2023-03-14T06:03:05.524Z,11.31
2023-03-14T06:04:04.072Z,11.33
2023-03-14T06:05:03.711Z,11.30
2023-03-14T06:06:03.839Z,11.31
2023-03-14T06:07:03.814Z,11.27
2023-03-14T06:08:03.705Z,11.30
2023-03-14T06:09:03.768Z,11.27
2023-03-14T06:10:03.648Z,11.27
2023-03-14T06:11:03.678Z,11.30
2023-03-14T06:12:03.673Z,11.26
2023-03-14T06:13:03.654Z,11.26
2023-03-14T06:14:03.645Z,11.27
2023-03-14T06:15:03.629Z,11.27
2023-03-14T06:16:03.589Z,11.27
2023-03-14T06:17:03.598Z,11.26
2023-03-14T06:18:03.609Z,11.26
2023-03-14T06:19:03.597Z,11.26
2023-03-14T06:20:03.622Z,11.27
2023-03-14T06:21:03.535Z,11.25
2023-03-14T06:22:03.556Z,11.27
2023-03-14T06:23:03.546Z,11.26
2023-03-14T06:24:03.536Z,11.26
2023-03-14T06:25:03.554Z,11.26
2023-03-14T06:26:03.631Z,11.26
2023-03-14T06:27:03.506Z,11.26
2023-03-14T06:28:03.462Z,11.25
2023-03-14T06:29:03.446Z,11.25
2023-03-14T06:30:03.461Z,11.26
2023-03-14T06:31:03.480Z,11.26
2023-03-14T06:32:03.426Z,11.27
2023-03-14T06:33:03.486Z,11.27
2023-03-14T06:34:03.443Z,11.30
2023-03-14T06:35:03.415Z,11.30
2023-03-14T06:36:03.502Z,11.33
2023-03-14T06:37:03.486Z,11.27
2023-03-14T06:38:03.385Z,11.30
2023-03-14T06:39:03.405Z,11.27
2023-03-14T06:40:03.361Z,11.31
2023-03-14T06:41:03.521Z,11.30
2023-03-14T06:42:03.339Z,11.30
2023-03-14T06:43:03.328Z,11.35
2023-03-14T06:44:03.312Z,11.35
2023-03-14T06:45:03.328Z,11.38
2023-03-14T06:46:03.297Z,11.41
2023-03-14T06:47:03.324Z,11.43
2023-03-14T06:48:03.320Z,11.44
2023-03-14T06:49:03.273Z,11.44
2023-03-14T06:50:03.295Z,11.45
2023-03-14T06:51:03.317Z,11.45
2023-03-14T06:52:03.406Z,11.44
2023-03-14T06:53:03.321Z,11.43
2023-03-14T06:54:03.187Z,11.45
2023-03-14T06:55:03.159Z,11.48
2023-03-14T06:56:03.209Z,11.48
2023-03-14T06:57:03.173Z,11.49
2023-03-14T06:58:03.210Z,11.52
2023-03-14T06:59:03.181Z,11.52
2023-03-14T07:00:03.160Z,11.53
2023-03-14T07:01:03.159Z,11.58
2023-03-14T07:02:03.132Z,11.62
2023-03-14T07:03:03.133Z,11.63
2023-03-14T07:04:03.502Z,11.67
2023-03-14T07:05:03.168Z,11.67
2023-03-14T07:06:03.063Z,11.68
2023-03-14T07:07:03.101Z,11.68
2023-03-14T07:08:03.045Z,11.67
2023-03-14T07:09:04.156Z,11.67
2023-03-14T07:10:03.038Z,11.70
2023-03-14T07:11:03.051Z,11.67
2023-03-14T07:12:03.020Z,11.68
2023-03-14T07:13:03.013Z,11.68
2023-03-14T07:14:02.993Z,11.68
2023-03-14T07:15:15.679Z,11.70
2023-03-14T07:16:04.108Z,11.70
2023-03-14T07:17:03.002Z,11.71
2023-03-14T07:18:02.962Z,11.70
2023-03-14T07:19:02.923Z,11.68
2023-03-14T07:20:02.929Z,11.73
2023-03-14T07:21:02.908Z,11.73
2023-03-14T07:22:02.881Z,11.74
2023-03-14T07:23:02.882Z,11.74
2023-03-14T07:24:02.884Z,11.77
2023-03-14T07:25:02.890Z,11.77
2023-03-14T07:26:02.870Z,11.78
2023-03-14T07:27:02.872Z,11.78
2023-03-14T07:28:02.821Z,11.78
2023-03-14T07:29:02.840Z,11.78
2023-03-14T07:30:02.809Z,11.81
2023-03-14T07:31:02.957Z,11.80
2023-03-14T07:32:02.841Z,11.83
2023-03-14T07:33:02.917Z,11.83
2023-03-14T07:34:02.798Z,11.85
2023-03-14T07:35:02.751Z,11.85
2023-03-14T07:36:02.759Z,11.89
2023-03-14T07:37:02.729Z,11.88
2023-03-14T07:38:02.732Z,11.91
2023-03-14T07:39:02.716Z,11.95
2023-03-14T07:40:02.709Z,11.97
2023-03-14T07:41:02.800Z,11.99
2023-03-14T07:42:02.683Z,12.03
2023-03-14T07:43:02.667Z,12.05
2023-03-14T07:44:02.674Z,12.08
2023-03-14T07:45:02.672Z,12.11
2023-03-14T07:46:02.653Z,12.15
2023-03-14T07:47:02.777Z,12.20
2023-03-14T07:48:02.611Z,12.23
2023-03-14T07:49:02.613Z,12.23
2023-03-14T07:50:02.574Z,12.29
2023-03-14T07:51:02.575Z,12.32
2023-03-14T07:52:02.577Z,12.37
2023-03-14T07:53:12.115Z,12.40
2023-03-14T07:54:02.522Z,12.50
2023-03-14T07:55:02.984Z,12.57
2023-03-14T07:56:02.532Z,12.68
2023-03-14T07:57:02.528Z,12.73
2023-03-14T07:58:02.519Z,12.83
2023-03-14T07:59:02.540Z,12.90
2023-03-14T08:00:02.514Z,12.91
2023-03-14T08:01:02.478Z,12.93
2023-03-14T08:02:02.460Z,12.95
2023-03-14T08:03:02.539Z,12.95
2023-03-14T08:04:02.466Z,13.01
2023-03-14T08:05:02.423Z,13.03
2023-03-14T08:06:02.425Z,13.11
2023-03-14T08:07:02.449Z,13.13
2023-03-14T08:08:03.102Z,13.16
2023-03-14T08:09:02.418Z,13.16
2023-03-14T08:10:02.386Z,13.17
2023-03-14T08:11:02.366Z,13.21
2023-03-14T08:12:02.383Z,13.23
2023-03-14T08:13:02.593Z,13.20
2023-03-14T08:14:02.403Z,13.21
2023-03-14T08:15:02.320Z,13.17
2023-03-14T08:16:02.361Z,13.17
2023-03-14T08:17:02.332Z,13.16
2023-03-14T08:18:02.370Z,13.19
2023-03-14T08:19:02.346Z,13.19
2023-03-14T08:20:02.295Z,13.19
2023-03-14T08:21:02.272Z,13.19
2023-03-14T08:22:02.244Z,13.20
2023-03-14T08:23:02.234Z,13.19
2023-03-14T08:24:02.355Z,13.19
2023-03-14T08:25:02.250Z,13.17
2023-03-14T08:26:02.218Z,13.17
2023-03-14T08:27:02.200Z,13.19
2023-03-14T08:28:02.189Z,13.20
2023-03-14T08:29:02.241Z,13.17
2023-03-14T08:30:02.203Z,13.19
2023-03-14T08:31:02.507Z,13.19
2023-03-14T08:32:02.158Z,13.21
2023-03-14T08:33:02.230Z,13.20
2023-03-14T08:34:02.129Z,13.23
2023-03-14T08:35:02.131Z,13.24
2023-03-14T08:36:02.180Z,13.26
2023-03-14T08:37:04.371Z,13.30
2023-03-14T08:38:02.116Z,13.37
2023-03-14T08:39:02.149Z,13.40
2023-03-14T08:40:02.058Z,13.43
2023-03-14T08:41:02.120Z,13.43
2023-03-14T08:42:02.048Z,13.43
2023-03-14T08:43:02.011Z,13.45
2023-03-14T08:44:02.046Z,13.46
2023-03-14T08:45:02.049Z,13.46
2023-03-14T08:46:01.989Z,13.49
2023-03-14T08:47:02.039Z,13.55
2023-03-14T08:48:01.982Z,13.58
2023-03-14T08:49:01.956Z,13.60
2023-03-14T08:50:01.991Z,13.58
2023-03-14T08:51:01.939Z,13.60
2023-03-14T08:52:01.964Z,13.58
2023-03-14T08:53:02.018Z,13.57
2023-03-14T08:54:01.996Z,13.58
2023-03-14T08:55:01.951Z,13.58
2023-03-14T08:56:01.882Z,13.58
2023-03-14T08:57:01.859Z,13.55
2023-03-14T08:58:01.880Z,13.55
2023-03-14T08:59:01.870Z,13.60
2023-03-14T09:00:01.891Z,13.65
2023-03-14T09:01:01.860Z,13.71
2023-03-14T09:02:01.846Z,13.75
2023-03-14T09:03:01.859Z,13.82
2023-03-14T09:04:01.786Z,13.83
2023-03-14T09:05:01.882Z,13.83
2023-03-14T09:06:01.752Z,13.87
2023-03-14T09:07:01.879Z,13.93
2023-03-14T09:08:01.754Z,13.93
2023-03-14T09:09:01.719Z,13.95
2023-03-14T09:10:01.789Z,13.98
2023-03-14T09:11:01.726Z,14.03
2023-03-14T09:12:01.887Z,14.07
2023-03-14T09:13:01.737Z,14.08
2023-03-14T09:14:01.715Z,14.08
2023-03-14T09:15:01.703Z,14.11
2023-03-14T09:16:01.662Z,14.12
2023-03-14T09:17:01.665Z,14.12
2023-03-14T09:18:01.783Z,14.11
2023-03-14T09:19:01.681Z,14.11
2023-03-14T09:20:01.644Z,14.08
2023-03-14T09:21:01.625Z,14.07
2023-03-14T09:22:01.623Z,14.07
2023-03-14T09:23:01.649Z,14.08
2023-03-14T09:24:01.585Z,14.11
2023-03-14T09:25:01.573Z,14.07
2023-03-14T09:26:01.582Z,14.11
2023-03-14T09:27:01.562Z,14.12
2023-03-14T09:28:01.534Z,14.13
2023-03-14T09:29:01.552Z,14.15
2023-03-14T09:30:01.550Z,14.15
2023-03-14T09:31:01.514Z,14.18
2023-03-14T09:32:01.536Z,14.22
2023-03-14T09:33:01.631Z,14.23
2023-03-14T09:34:01.460Z,14.28
2023-03-14T09:35:01.461Z,14.25
2023-03-14T09:36:01.415Z,14.25
2023-03-14T09:37:01.460Z,14.23
2023-03-14T09:38:01.430Z,14.23
2023-03-14T09:39:01.415Z,14.16
2023-03-14T09:40:01.483Z,14.13
2023-03-14T09:41:01.413Z,14.11
2023-03-14T09:42:01.391Z,14.08
2023-03-14T09:43:01.361Z,14.04
2023-03-14T09:44:01.376Z,14.01
2023-03-14T09:45:01.380Z,13.95
2023-03-14T09:46:01.423Z,13.94
2023-03-14T09:47:01.320Z,13.87
2023-03-14T09:48:01.343Z,13.87
2023-03-14T09:49:01.308Z,13.87
2023-03-14T09:50:01.319Z,13.86
2023-03-14T09:51:01.282Z,13.85
2023-03-14T09:52:04.023Z,13.83
2023-03-14T09:53:01.286Z,13.82
2023-03-14T09:54:01.220Z,13.80
2023-03-14T09:55:01.251Z,13.79
2023-03-14T09:56:01.236Z,13.75
2023-03-14T09:57:01.206Z,13.73
2023-03-14T09:58:01.214Z,13.71
2023-03-14T09:59:01.216Z,13.71
2023-03-14T10:00:01.624Z,13.65
2023-03-14T10:01:03.524Z,13.64
2023-03-14T10:02:01.168Z,13.62
2023-03-14T10:03:01.245Z,13.60
2023-03-14T10:04:01.164Z,13.55
2023-03-14T10:05:06.675Z,13.50
2023-03-14T10:06:02.093Z,13.49
2023-03-14T10:07:04.252Z,13.43
2023-03-14T10:08:01.090Z,13.37
2023-03-14T10:09:01.044Z,13.31
2023-03-14T10:10:01.110Z,13.30
2023-03-14T10:11:01.076Z,13.27
2023-03-14T10:12:01.075Z,13.23
2023-03-14T10:13:01.184Z,13.19
2023-03-14T10:14:01.060Z,13.16
2023-03-14T10:15:01.021Z,13.11
2023-03-14T10:16:01.011Z,13.09
2023-03-14T10:17:01.056Z,13.06
2023-03-14T10:18:01.116Z,13.03
2023-03-14T10:19:00.977Z,13.02
2023-03-14T10:20:01.019Z,12.95
2023-03-14T10:21:00.980Z,12.95
2023-03-14T10:22:01.073Z,12.93
2023-03-14T10:23:00.922Z,12.90
2023-03-14T10:24:00.907Z,12.88
2023-03-14T10:25:00.927Z,12.91
2023-03-14T10:26:00.913Z,12.93
2023-03-14T10:27:00.855Z,12.90
2023-03-14T10:28:00.878Z,12.93
2023-03-14T10:29:00.887Z,12.90
2023-03-14T10:30:00.911Z,12.90
2023-03-14T10:31:00.942Z,12.88
2023-03-14T10:32:00.803Z,12.90
2023-03-14T10:33:00.921Z,12.90
2023-03-14T10:34:00.825Z,12.91
2023-03-14T10:35:00.789Z,12.94
2023-03-14T10:36:00.806Z,12.98
2023-03-14T10:37:01.059Z,13.02
2023-03-14T10:38:00.760Z,13.05
2023-03-14T10:39:00.718Z,13.06
2023-03-14T10:40:00.726Z,13.06
2023-03-14T10:41:00.736Z,13.05
2023-03-14T10:42:00.725Z,13.02
2023-03-14T10:43:00.685Z,12.98
2023-03-14T10:44:00.717Z,12.91
2023-03-14T10:45:00.780Z,12.87
2023-03-14T10:46:00.812Z,12.84
2023-03-14T10:47:00.658Z,12.80
2023-03-14T10:48:00.720Z,12.76
2023-03-14T10:49:00.639Z,12.76
2023-03-14T10:50:00.689Z,12.78
2023-03-14T10:51:00.654Z,12.78
2023-03-14T10:52:00.622Z,12.84
2023-03-14T10:53:02.906Z,12.88
2023-03-14T10:54:00.619Z,12.98
2023-03-14T10:55:00.612Z,12.99
2023-03-14T10:56:00.625Z,13.02
2023-03-14T10:57:00.551Z,13.03
2023-03-14T10:58:00.581Z,13.06
2023-03-14T10:59:00.547Z,13.11
2023-03-14T11:00:00.670Z,13.11
2023-03-14T11:01:00.519Z,13.11
2023-03-14T11:02:00.589Z,13.08
2023-03-14T11:03:00.507Z,13.05
2023-03-14T11:04:00.464Z,13.01
2023-03-14T11:05:00.510Z,12.95
2023-03-14T11:06:00.495Z,12.94
2023-03-14T11:07:00.467Z,12.88
2023-03-14T11:08:00.458Z,12.86
2023-03-14T11:09:00.457Z,12.84
2023-03-14T11:10:00.437Z,12.88
2023-03-14T11:11:00.452Z,12.87
2023-03-14T11:12:00.510Z,12.87
2023-03-14T11:13:00.398Z,12.84
2023-03-14T11:14:00.470Z,12.81
2023-03-14T11:15:00.360Z,12.80
2023-03-14T11:16:00.450Z,12.78
2023-03-14T11:17:00.390Z,12.73
2023-03-14T11:18:00.345Z,12.75
2023-03-14T11:19:00.289Z,12.75
2023-03-14T11:20:00.305Z,12.75
2023-03-14T11:21:00.310Z,12.75
2023-03-14T11:22:00.288Z,12.78
2023-03-14T11:23:00.591Z,12.75
2023-03-14T11:24:00.280Z,12.80
2023-03-14T11:25:00.267Z,12.83
2023-03-14T11:26:00.330Z,12.90
2023-03-14T11:27:00.248Z,12.93
2023-03-14T11:28:00.228Z,12.94
2023-03-14T11:29:00.217Z,12.90
2023-03-14T11:30:00.201Z,12.90
2023-03-14T11:31:00.210Z,12.87
2023-03-14T11:32:00.675Z,12.90
2023-03-14T11:33:00.190Z,12.90
2023-03-14T11:34:00.168Z,12.90
2023-03-14T11:35:00.218Z,12.88
2023-03-14T11:36:00.232Z,12.88
2023-03-14T11:37:00.180Z,12.86
2023-03-14T11:38:00.126Z,12.84
2023-03-14T11:39:00.113Z,12.80
2023-03-14T11:40:00.106Z,12.76
2023-03-14T11:41:00.227Z,12.68
2023-03-14T11:42:00.700Z,12.63
2023-03-14T11:43:00.633Z,12.55
2023-03-14T11:44:00.559Z,12.48
2023-03-14T11:45:00.527Z,12.39
2023-03-14T11:46:00.070Z,12.35
2023-03-14T11:47:00.724Z,12.26
2023-03-14T11:48:00.028Z,12.20
2023-03-14T11:49:00.200Z,12.14
2023-03-14T11:49:59.999Z,12.08
2023-03-14T11:51:00.031Z,12.05
2023-03-14T11:51:59.980Z,12.00
2023-03-14T11:52:59.972Z,11.93
2023-03-14T11:53:59.946Z,11.91
2023-03-14T11:54:59.952Z,11.85
2023-03-14T11:55:59.940Z,11.78
2023-03-14T11:57:00.008Z,11.74
2023-03-14T11:57:59.898Z,11.70
2023-03-14T11:58:59.904Z,11.63
2023-03-14T11:59:59.862Z,11.59
2023-03-14T12:00:59.838Z,11.53
2023-03-14T12:01:59.970Z,11.53
2023-03-14T12:02:59.852Z,11.52
2023-03-14T12:03:59.852Z,11.48
2023-03-14T12:04:59.839Z,11.44
2023-03-14T12:05:59.841Z,11.45
2023-03-14T12:06:59.785Z,11.41
2023-03-14T12:07:59.775Z,11.40
2023-03-14T12:08:59.795Z,11.41
2023-03-14T12:09:59.824Z,11.44
2023-03-14T12:10:59.767Z,11.53
2023-03-14T12:11:59.764Z,11.65
2023-03-14T12:12:59.740Z,11.85
2023-03-14T12:13:59.739Z,12.00
2023-03-14T12:14:59.708Z,12.18
2023-03-14T12:16:05.049Z,12.35
2023-03-14T12:16:59.724Z,12.51
2023-03-14T12:17:59.729Z,12.70
2023-03-14T12:18:59.653Z,12.88
2023-03-14T12:19:59.643Z,13.09
2023-03-14T12:20:59.693Z,13.19
2023-03-14T12:21:59.633Z,13.24
2023-03-14T12:22:59.626Z,13.28
2023-03-14T12:23:59.805Z,13.31
2023-03-14T12:24:59.715Z,13.36
2023-03-14T12:25:59.684Z,13.40
2023-03-14T12:26:59.603Z,13.40
2023-03-14T12:27:59.671Z,13.40
2023-03-14T12:28:59.569Z,13.37
2023-03-14T12:30:01.133Z,13.37
2023-03-14T12:30:59.576Z,13.30
2023-03-14T12:31:59.580Z,13.28
2023-03-14T12:32:59.582Z,13.20
2023-03-14T12:33:59.495Z,13.19
2023-03-14T12:34:59.476Z,13.11
2023-03-14T12:35:59.524Z,13.05
2023-03-14T12:36:59.465Z,12.98
2023-03-14T12:37:59.424Z,12.91
2023-03-14T12:38:59.434Z,12.87
2023-03-14T12:39:59.422Z,12.83
2023-03-14T12:40:59.414Z,12.78
2023-03-14T12:41:59.426Z,12.73
2023-03-14T12:42:59.444Z,12.68
2023-03-14T12:43:59.434Z,12.63
2023-03-14T12:44:59.365Z,12.66
2023-03-14T12:45:59.446Z,12.69
2023-03-14T12:46:59.374Z,12.69
2023-03-14T12:47:59.324Z,12.73
2023-03-14T12:48:59.372Z,12.75
2023-03-14T12:49:59.351Z,12.76
2023-03-14T12:50:59.364Z,12.80
2023-03-14T12:51:59.300Z,12.84